createdAt,value
2019-04-11T00:01:05.915Z,5.10
2019-04-11T00:03:35.794Z,5.10
2019-04-11T00:06:05.815Z,5.10
2019-04-11T00:08:36.989Z,5.10
2019-04-11T00:11:06.928Z,5.10
2019-04-11T00:13:36.624Z,5.10
2019-04-11T00:16:06.953Z,5.10
2019-04-11T00:18:36.726Z,5.10
2019-04-11T00:21:06.850Z,5.20
2019-04-11T00:23:36.948Z,5.10
2019-04-11T00:26:06.842Z,5.20
2019-04-11T00:28:37.539Z,5.10
2019-04-11T00:31:08.451Z,5.10
2019-04-11T00:33:38.534Z,5.10
2019-04-11T00:36:10.375Z,5.00
2019-04-11T00:38:40.322Z,5.00
2019-04-11T00:41:10.877Z,5.00
2019-04-11T00:43:43.519Z,5.00
2019-04-11T00:46:12.239Z,5.00
2019-04-11T00:48:41.936Z,4.90
2019-04-11T00:51:11.929Z,4.90
2019-04-11T00:53:42.363Z,4.90
2019-04-11T00:56:12.400Z,4.90
2019-04-11T00:58:42.258Z,4.80
2019-04-11T01:01:12.028Z,4.80
2019-04-11T01:03:41.846Z,4.80
2019-04-11T01:06:12.197Z,4.80
2019-04-11T01:08:42.045Z,4.80
2019-04-11T01:11:12.000Z,4.80
2019-04-11T01:13:50.345Z,4.70
2019-04-11T01:16:32.341Z,4.70
2019-04-11T01:19:02.610Z,4.70
2019-04-11T01:21:32.790Z,4.70
2019-04-11T01:24:03.736Z,4.70
2019-04-11T01:26:33.504Z,4.70
2019-04-11T01:29:04.038Z,4.60
2019-04-11T01:31:35.906Z,4.60
2019-04-11T01:34:06.518Z,4.60
2019-04-11T01:36:37.317Z,4.60
2019-04-11T01:39:27.922Z,4.60
2019-04-11T01:41:58.679Z,4.60
2019-04-11T01:44:28.479Z,4.60
2019-04-11T01:46:59.547Z,4.50
2019-04-11T01:49:30.323Z,4.60
2019-04-11T01:52:00.411Z,4.60
2019-04-11T01:54:30.081Z,4.60
2019-04-11T01:57:01.322Z,4.60
2019-04-11T01:59:31.275Z,4.60
2019-04-11T02:02:26.249Z,4.60
2019-04-11T02:05:18.835Z,4.60
2019-04-11T02:07:49.019Z,4.60
2019-04-11T02:10:18.990Z,4.50
2019-04-11T02:12:49.123Z,4.40
2019-04-11T02:15:20.071Z,4.30
2019-04-11T02:17:50.927Z,4.30
2019-04-11T02:20:20.933Z,4.40
2019-04-11T02:22:56.908Z,4.40
2019-04-11T02:25:46.971Z,4.40
2019-04-11T02:28:18.812Z,4.40
2019-04-11T02:30:52.053Z,4.40
2019-04-11T02:33:24.788Z,4.40
2019-04-11T02:35:54.517Z,4.30
2019-04-11T02:38:25.726Z,4.30
2019-04-11T02:40:57.424Z,4.30
2019-04-11T02:43:29.427Z,4.30
2019-04-11T02:46:11.706Z,4.30
2019-04-11T02:48:31.162Z,4.30
2019-04-11T02:51:02.997Z,4.20
2019-04-11T02:53:34.365Z,4.20
2019-04-11T02:56:06.235Z,4.20
2019-04-11T02:58:36.966Z,4.20
2019-04-11T03:01:09.889Z,4.20
2019-04-11T03:03:41.666Z,4.10
2019-04-11T03:06:11.733Z,4.10
2019-04-11T03:08:43.498Z,4.10
2019-04-11T03:11:14.391Z,4.00
2019-04-11T03:13:48.676Z,4.00
2019-04-11T03:16:32.815Z,4.00
2019-04-11T03:19:08.514Z,4.00
2019-04-11T03:21:25.764Z,3.90
2019-04-11T03:23:56.072Z,3.80
2019-04-11T03:26:27.032Z,3.80
2019-04-11T03:28:57.883Z,3.80
2019-04-11T03:34:53.678Z,3.70
2019-04-11T03:39:29.021Z,3.60
2019-04-11T03:41:54.758Z,3.50
2019-04-11T03:44:20.518Z,3.50
2019-04-11T03:46:52.471Z,3.50
2019-04-11T03:49:25.435Z,3.40
2019-04-11T03:51:46.062Z,3.30
2019-04-11T03:54:17.802Z,3.30
2019-04-11T03:56:49.319Z,3.20
2019-04-11T03:59:21.682Z,3.20
2019-04-11T04:01:51.229Z,3.10
2019-04-11T04:04:21.799Z,3.10
2019-04-11T04:06:52.866Z,3.10
2019-04-11T04:09:23.966Z,3.00
2019-04-11T04:11:56.933Z,3.00
2019-04-11T04:14:37.155Z,2.90
2019-04-11T04:17:21.277Z,2.90
2019-04-11T04:19:59.496Z,2.80
2019-04-11T04:22:35.617Z,2.80
2019-04-11T04:25:06.032Z,2.70
2019-04-11T04:27:36.068Z,2.60
2019-04-11T04:30:08.463Z,2.60
2019-04-11T04:32:38.725Z,2.60
2019-04-11T04:35:12.677Z,2.60
2019-04-11T04:37:41.023Z,2.50
2019-04-11T04:40:26.903Z,2.50
2019-04-11T04:42:47.663Z,2.50
2019-04-11T04:45:16.344Z,2.50
2019-04-11T04:47:54.249Z,2.40
2019-04-11T04:50:19.939Z,2.30
2019-04-11T04:52:51.574Z,2.30
2019-04-11T04:55:25.971Z,2.30
2019-04-11T04:57:57.569Z,2.30
2019-04-11T05:00:28.042Z,2.30
2019-04-11T05:02:59.843Z,2.30
2019-04-11T05:05:31.009Z,2.30
2019-04-11T05:08:02.734Z,2.30
2019-04-11T05:10:33.320Z,2.30
2019-04-11T05:13:03.661Z,2.30
2019-04-11T05:15:34.548Z,2.30
2019-04-11T05:18:06.118Z,2.30
2019-04-11T05:20:36.379Z,2.20
2019-04-11T05:23:06.494Z,2.20
2019-04-11T05:25:36.959Z,2.20
2019-04-11T05:28:06.771Z,2.30
2019-04-11T05:30:36.494Z,2.30
2019-04-11T05:33:06.543Z,2.40
2019-04-11T05:35:36.354Z,2.40
2019-04-11T05:38:06.627Z,2.40
2019-04-11T05:40:36.328Z,2.50
2019-04-11T05:43:06.183Z,2.50
2019-04-11T05:45:36.084Z,2.60
2019-04-11T05:48:09.406Z,2.60
2019-04-11T05:50:47.054Z,2.70
2019-04-11T05:53:13.588Z,2.80
2019-04-11T05:55:45.814Z,2.90
2019-04-11T05:58:16.138Z,3.10
2019-04-11T06:00:53.335Z,3.30
2019-04-11T06:03:23.905Z,3.50
2019-04-11T06:06:18.348Z,3.60
2019-04-11T06:08:48.978Z,3.80
2019-04-11T06:11:48.200Z,4.00
2019-04-11T06:14:27.254Z,4.10
2019-04-11T06:17:00.855Z,4.20
2019-04-11T06:19:56.312Z,4.40
2019-04-11T06:22:26.621Z,4.50
2019-04-11T06:25:19.275Z,4.70
2019-04-11T06:27:59.950Z,4.80
2019-04-11T06:30:48.618Z,4.90
2019-04-11T06:33:28.992Z,5.00
2019-04-11T06:36:21.092Z,5.10
2019-04-11T06:39:25.470Z,5.20
2019-04-11T06:42:17.054Z,5.10
2019-04-11T06:45:06.422Z,5.20
2019-04-11T06:47:51.332Z,5.20
2019-04-11T06:50:40.232Z,5.30
2019-04-11T06:53:11.642Z,5.30
2019-04-11T06:56:08.981Z,5.40
2019-04-11T06:58:43.453Z,5.40
2019-04-11T07:01:18.137Z,5.40
2019-04-11T07:03:55.280Z,5.50
2019-04-11T07:06:27.592Z,5.60
2019-04-11T07:09:20.205Z,5.60
2019-04-11T07:11:53.239Z,5.60
2019-04-11T07:14:29.308Z,5.50
2019-04-11T07:17:16.695Z,5.60
2019-04-11T07:20:06.631Z,5.70
2019-04-11T07:22:55.293Z,5.80
2019-04-11T07:25:53.928Z,5.80
2019-04-11T07:28:42.217Z,5.80
2019-04-11T07:31:30.355Z,5.90
2019-04-11T07:34:22.023Z,6.00
2019-04-11T07:37:10.487Z,6.00
2019-04-11T07:40:00.666Z,6.00
2019-04-11T07:42:52.279Z,6.10
2019-04-11T07:45:26.969Z,6.00
2019-04-11T07:48:07.141Z,6.10
2019-04-11T07:50:36.989Z,6.10
2019-04-11T07:53:07.007Z,6.20
2019-04-11T07:55:36.967Z,6.20
2019-04-11T07:58:25.115Z,6.40
2019-04-11T08:01:12.661Z,6.50
2019-04-11T08:04:01.571Z,6.60
2019-04-11T08:06:54.262Z,6.70
2019-04-11T08:09:36.281Z,6.90
2019-04-11T08:12:12.876Z,6.90
2019-04-11T08:15:01.464Z,6.90
2019-04-11T08:17:40.637Z,7.10
2019-04-11T08:20:33.246Z,7.10
2019-04-11T08:23:05.683Z,7.20
2019-04-11T08:25:57.784Z,7.30
2019-04-11T08:28:28.845Z,7.50
2019-04-11T08:31:28.623Z,7.50
2019-04-11T08:34:01.214Z,7.70
2019-04-11T08:36:50.623Z,7.70
2019-04-11T08:39:24.810Z,7.70
2019-04-11T08:42:21.209Z,7.60
2019-04-11T08:44:52.205Z,7.60
2019-04-11T08:47:22.596Z,7.50
2019-04-11T08:49:55.804Z,7.60
2019-04-11T08:52:57.170Z,7.60
2019-04-11T08:55:46.693Z,7.70
2019-04-11T08:58:36.504Z,7.80
2019-04-11T09:01:08.978Z,7.70
2019-04-11T09:04:04.631Z,7.70
2019-04-11T09:06:32.574Z,7.80
2019-04-11T09:09:20.883Z,7.90
2019-04-11T09:11:58.190Z,7.90
2019-04-11T09:14:46.502Z,7.90
2019-04-11T09:17:23.230Z,7.90
2019-04-11T09:20:11.542Z,7.90
2019-04-11T09:22:49.033Z,7.70
2019-04-11T09:25:37.066Z,7.50
2019-04-11T09:28:11.390Z,7.60
2019-04-11T09:30:58.983Z,7.70
2019-04-11T09:33:57.547Z,7.80
2019-04-11T09:36:55.464Z,7.90
2019-04-11T09:39:35.648Z,8.10
2019-04-11T09:42:30.588Z,8.20
2019-04-11T09:45:35.383Z,8.50
2019-04-11T09:48:37.802Z,8.70
2019-04-11T09:51:40.288Z,9.00
2019-04-11T09:54:15.595Z,9.30
2019-04-11T09:57:04.362Z,9.40
2019-04-11T09:59:41.176Z,9.40
2019-04-11T10:02:29.545Z,9.30
2019-04-11T10:05:01.454Z,9.20
2019-04-11T10:08:08.662Z,9.00
2019-04-11T10:10:57.496Z,9.10
2019-04-11T10:13:45.023Z,8.70
2019-04-11T10:16:32.279Z,8.60
2019-04-11T10:19:13.861Z,8.70
2019-04-11T10:21:49.857Z,8.70
2019-04-11T10:24:38.814Z,9.00
2019-04-11T10:27:17.591Z,8.90
2019-04-11T10:30:06.604Z,8.70
2019-04-11T10:32:41.900Z,8.60
2019-04-11T10:35:40.825Z,8.50
2019-04-11T10:38:10.547Z,8.40
2019-04-11T10:41:14.734Z,8.40
2019-04-11T10:43:45.663Z,8.40
2019-04-11T10:46:27.146Z,8.40
2019-04-11T10:49:05.311Z,8.30
2019-04-11T10:51:58.109Z,8.40
2019-04-11T10:54:30.953Z,8.40
2019-04-11T10:57:20.928Z,8.50
2019-04-11T10:59:51.161Z,8.40
2019-04-11T11:02:39.730Z,8.40
2019-04-11T11:05:11.198Z,8.40
2019-04-11T11:07:42.977Z,8.60
2019-04-11T11:10:16.100Z,8.70
2019-04-11T11:13:11.806Z,8.70
2019-04-11T11:15:45.237Z,8.60
2019-04-11T11:19:04.334Z,8.60
2019-04-11T11:21:16.096Z,8.70
2019-04-11T11:23:54.411Z,8.60
2019-04-11T11:26:35.610Z,8.50
2019-04-11T11:29:24.286Z,8.30
2019-04-11T11:31:56.587Z,8.30
2019-04-11T11:34:30.567Z,8.40
2019-04-11T11:37:20.794Z,8.40
2019-04-11T11:40:12.983Z,8.50
2019-04-11T11:42:58.781Z,8.50
2019-04-11T11:45:49.160Z,8.40
2019-04-11T11:48:36.446Z,8.30
2019-04-11T11:51:25.647Z,8.20
2019-04-11T11:54:02.934Z,8.00
2019-04-11T11:56:34.068Z,7.80
2019-04-11T11:59:20.196Z,7.80
2019-04-11T12:02:00.042Z,7.80
2019-04-11T12:05:07.818Z,7.70
2019-04-11T12:07:40.951Z,7.70
2019-04-11T12:10:22.534Z,7.80
2019-04-11T12:13:21.974Z,7.90
2019-04-11T12:16:07.799Z,8.00
2019-04-11T12:19:17.982Z,8.10
2019-04-11T12:21:48.895Z,8.00
2019-04-11T12:24:32.503Z,7.80
2019-04-11T12:27:37.190Z,7.90
2019-04-11T12:30:33.966Z,8.10
2019-04-11T12:33:13.520Z,8.10
2019-04-11T12:35:48.625Z,8.20
2019-04-11T12:38:36.199Z,8.40
2019-04-11T12:41:43.952Z,8.50
2019-04-11T12:44:32.700Z,8.60
2019-04-11T12:47:20.352Z,8.50
2019-04-11T12:50:24.844Z,8.50
2019-04-11T12:53:00.762Z,8.50
2019-04-11T12:55:48.283Z,8.50
2019-04-11T12:58:26.255Z,8.40
2019-04-11T13:01:15.146Z,8.40
2019-04-11T13:04:02.748Z,8.40
2019-04-11T13:06:46.072Z,8.40
2019-04-11T13:09:32.506Z,8.40
2019-04-11T13:12:03.156Z,8.50
2019-04-11T13:14:41.566Z,8.40
2019-04-11T13:17:14.679Z,8.40
2019-04-11T13:20:18.539Z,8.30
2019-04-11T13:22:49.603Z,8.30
2019-04-11T13:25:47.783Z,8.30
2019-04-11T13:28:17.508Z,8.40
2019-04-11T13:31:21.599Z,8.40
2019-04-11T13:33:55.134Z,8.40
2019-04-11T13:36:41.223Z,8.40
2019-04-11T13:39:11.081Z,8.40
2019-04-11T13:41:48.734Z,8.40
2019-04-11T13:44:25.027Z,8.30
2019-04-11T13:47:26.120Z,8.10
2019-04-11T13:50:03.932Z,8.00
2019-04-11T13:52:54.364Z,8.00
2019-04-11T13:55:49.376Z,8.10
2019-04-11T13:58:36.931Z,8.10
2019-04-11T14:01:16.741Z,8.10
2019-04-11T14:04:00.824Z,8.10
2019-04-11T14:06:34.748Z,8.10
2019-04-11T14:09:38.598Z,8.10
2019-04-11T14:12:14.281Z,8.10
2019-04-11T14:14:51.958Z,8.10
2019-04-11T14:17:59.107Z,8.20
2019-04-11T14:20:34.790Z,8.10
2019-04-11T14:23:35.205Z,8.20
2019-04-11T14:26:14.651Z,8.30
2019-04-11T14:28:49.927Z,8.30
2019-04-11T14:31:37.436Z,8.30
2019-04-11T14:34:16.555Z,8.20
2019-04-11T14:36:56.218Z,8.30
2019-04-11T14:39:27.768Z,8.30
2019-04-11T14:42:16.546Z,8.30
2019-04-11T14:44:46.604Z,8.20
2019-04-11T14:47:47.785Z,8.20
2019-04-11T14:50:18.898Z,8.20
2019-04-11T14:53:26.091Z,8.20
2019-04-11T14:56:02.682Z,8.20
2019-04-11T14:58:55.082Z,8.10
2019-04-11T15:01:27.917Z,8.10
2019-04-11T15:04:24.308Z,8.00
2019-04-11T15:06:53.990Z,8.00
2019-04-11T15:09:48.365Z,7.90
2019-04-11T15:12:23.610Z,7.90
2019-04-11T15:15:15.519Z,7.80
2019-04-11T15:17:45.979Z,7.70
2019-04-11T15:20:42.361Z,7.70
2019-04-11T15:23:37.537Z,7.80
2019-04-11T15:26:25.053Z,7.80
2019-04-11T15:29:01.405Z,7.80
2019-04-11T15:31:47.728Z,7.80
2019-04-11T15:34:26.836Z,7.80
2019-04-11T15:37:05.355Z,7.80
2019-04-11T15:39:53.043Z,7.90
2019-04-11T15:42:40.472Z,7.90
2019-04-11T15:45:17.207Z,7.80
2019-04-11T15:47:58.856Z,7.70
2019-04-11T15:51:05.889Z,7.70
2019-04-11T15:53:36.960Z,7.70
2019-04-11T15:56:41.759Z,7.70
2019-04-11T15:59:24.712Z,7.70
2019-04-11T16:02:12.316Z,7.60
2019-04-11T16:05:08.964Z,7.70
2019-04-11T16:07:57.766Z,7.70
2019-04-11T16:10:28.935Z,7.70
2019-04-11T16:13:06.259Z,7.70
2019-04-11T16:15:40.658Z,7.70
2019-04-11T16:18:29.643Z,7.70
2019-04-11T16:21:18.679Z,7.70
2019-04-11T16:23:59.128Z,7.70
2019-04-11T16:26:43.500Z,7.60
2019-04-11T16:29:27.172Z,7.60
2019-04-11T16:31:58.503Z,7.60
2019-04-11T16:34:48.641Z,7.50
2019-04-11T16:37:18.013Z,7.50
2019-04-11T16:40:07.851Z,7.40
2019-04-11T16:42:43.354Z,7.40
2019-04-11T16:45:32.918Z,7.40
2019-04-11T16:48:02.151Z,7.30
2019-04-11T16:50:32.768Z,7.30
2019-04-11T16:53:02.808Z,7.30
2019-04-11T16:55:32.642Z,7.30
2019-04-11T16:58:02.342Z,7.30
2019-04-11T17:00:32.665Z,7.30
2019-04-11T17:03:02.396Z,7.30
2019-04-11T17:05:32.090Z,7.20
2019-04-11T17:08:25.760Z,7.10
2019-04-11T17:11:00.844Z,7.00
2019-04-11T17:13:32.448Z,7.00
2019-04-11T17:16:02.870Z,7.00
2019-04-11T17:18:34.361Z,6.90
2019-04-11T17:21:07.820Z,6.80
2019-04-11T17:23:35.643Z,6.80
2019-04-11T17:26:06.138Z,6.70
2019-04-11T17:28:36.299Z,6.70
2019-04-11T17:31:06.043Z,6.70
2019-04-11T17:33:35.707Z,6.60
2019-04-11T17:36:05.415Z,6.50
2019-04-11T17:38:37.253Z,6.50
2019-04-11T17:41:11.996Z,6.50
2019-04-11T17:43:42.249Z,6.50
2019-04-11T17:46:12.391Z,6.40
2019-04-11T17:48:42.295Z,6.40
2019-04-11T17:51:11.998Z,6.30
2019-04-11T17:53:42.050Z,6.30
2019-04-11T17:56:11.744Z,6.30
2019-04-11T17:58:41.372Z,6.30
2019-04-11T18:01:11.011Z,6.30
2019-04-11T18:03:42.056Z,6.10
2019-04-11T18:06:12.112Z,6.10
2019-04-11T18:08:41.839Z,6.20
2019-04-11T18:11:12.607Z,6.20
2019-04-11T18:13:42.315Z,6.20
2019-04-11T18:16:11.963Z,6.20
2019-04-11T18:18:41.658Z,6.10
2019-04-11T18:21:11.460Z,6.10
2019-04-11T18:23:41.180Z,6.10
2019-04-11T18:26:12.171Z,6.00
2019-04-11T18:28:41.862Z,6.00
2019-04-11T18:31:11.607Z,6.00
2019-04-11T18:33:41.475Z,6.00
2019-04-11T18:36:11.142Z,6.00
2019-04-11T18:38:41.079Z,6.10
2019-04-11T18:41:13.662Z,6.10
2019-04-11T18:43:44.864Z,6.10
2019-04-11T18:46:14.607Z,6.10
2019-04-11T18:48:44.251Z,6.00
2019-04-11T18:51:14.503Z,6.00
2019-04-11T18:53:44.128Z,6.00
2019-04-11T18:56:14.116Z,6.00
2019-04-11T18:58:44.066Z,6.00
2019-04-11T19:01:14.722Z,5.90
2019-04-11T19:03:44.407Z,6.00
2019-04-11T19:06:14.502Z,6.00
2019-04-11T19:08:44.182Z,6.00
2019-04-11T19:11:15.849Z,5.90
2019-04-11T19:13:47.104Z,5.90
2019-04-11T19:16:16.896Z,6.00
2019-04-11T19:18:47.808Z,6.00
2019-04-11T19:21:21.087Z,5.90
2019-04-11T19:23:49.735Z,5.90
2019-04-11T19:26:19.413Z,5.90
2019-04-11T19:28:49.311Z,5.90
2019-04-11T19:31:20.217Z,5.90
2019-04-11T19:33:49.834Z,5.90
2019-04-11T19:36:19.474Z,5.90
2019-04-11T19:38:49.396Z,5.90
2019-04-11T19:41:19.112Z,5.90
2019-04-11T19:43:49.806Z,5.90
2019-04-11T19:46:20.459Z,5.90
2019-04-11T19:48:55.351Z,5.90
2019-04-11T19:51:22.291Z,5.90
2019-04-11T19:53:53.018Z,5.80
2019-04-11T19:56:29.855Z,5.80
2019-04-11T19:58:59.499Z,5.80
2019-04-11T20:01:29.536Z,5.70
2019-04-11T20:03:59.212Z,5.80
2019-04-11T20:06:31.119Z,5.70
2019-04-11T20:09:01.126Z,5.70
2019-04-11T20:11:32.715Z,5.70
2019-04-11T20:14:03.088Z,5.70
2019-04-11T20:16:41.398Z,5.70
2019-04-11T20:19:04.563Z,5.70
2019-04-11T20:21:38.134Z,5.70
2019-04-11T20:24:05.533Z,5.60
2019-04-11T20:26:35.197Z,5.60
2019-04-11T20:29:05.037Z,5.60
2019-04-11T20:31:34.902Z,5.60
2019-04-11T20:34:07.223Z,5.60
2019-04-11T20:36:36.209Z,5.60
2019-04-11T20:39:08.395Z,5.60
2019-04-11T20:41:38.331Z,5.60
2019-04-11T20:44:08.067Z,5.60
2019-04-11T20:46:37.688Z,5.50
2019-04-11T20:49:07.644Z,5.50
2019-04-11T20:51:37.276Z,5.50
2019-04-11T20:54:07.957Z,5.50
2019-04-11T20:56:39.923Z,5.50
2019-04-11T20:59:10.367Z,5.40
2019-04-11T21:01:40.927Z,5.40
2019-04-11T21:04:10.615Z,5.50
2019-04-11T21:06:40.574Z,5.40
2019-04-11T21:09:12.119Z,5.40
2019-04-11T21:11:41.891Z,5.40
2019-04-11T21:14:11.567Z,5.30
2019-04-11T21:16:41.199Z,5.20
2019-04-11T21:19:11.108Z,5.30
2019-04-11T21:21:41.531Z,5.20
2019-04-11T21:24:11.173Z,5.20
2019-04-11T21:26:40.922Z,5.20
2019-04-11T21:29:10.782Z,5.10
2019-04-11T21:31:40.451Z,5.10
2019-04-11T21:34:10.067Z,5.10
2019-04-11T21:36:40.291Z,5.10
2019-04-11T21:39:10.001Z,5.00
2019-04-11T21:41:39.655Z,5.00
2019-04-11T21:44:09.558Z,5.00
2019-04-11T21:46:41.780Z,4.90
2019-04-11T21:49:11.539Z,4.90
2019-04-11T21:51:42.337Z,4.90
2019-04-11T21:54:14.996Z,4.90
2019-04-11T21:56:44.026Z,4.80
2019-04-11T21:59:13.779Z,4.70
2019-04-11T22:01:44.159Z,4.70
2019-04-11T22:04:13.946Z,4.70
2019-04-11T22:06:43.583Z,4.70
2019-04-11T22:09:13.544Z,4.60
2019-04-11T22:11:43.543Z,4.50
2019-04-11T22:14:13.263Z,4.50
2019-04-11T22:16:45.130Z,4.40
2019-04-11T22:19:14.977Z,4.40
2019-04-11T22:21:46.046Z,4.30
2019-04-11T22:24:16.240Z,4.20
2019-04-11T22:26:50.119Z,4.20
2019-04-11T22:29:18.040Z,4.10
2019-04-11T22:31:47.698Z,4.10
2019-04-11T22:34:29.219Z,4.00
2019-04-11T22:37:00.570Z,3.90
2019-04-11T22:39:31.521Z,3.80
2019-04-11T22:42:02.086Z,3.80
2019-04-11T22:44:31.782Z,3.70
2019-04-11T22:47:01.511Z,3.70
2019-04-11T22:49:31.151Z,3.60
2019-04-11T22:52:00.778Z,3.60
2019-04-11T22:54:30.419Z,3.60
2019-04-11T22:57:00.152Z,3.50
2019-04-11T22:59:29.783Z,3.50
2019-04-11T23:02:09.043Z,3.40
2019-04-11T23:04:38.679Z,3.40
2019-04-11T23:07:08.321Z,3.40
2019-04-11T23:09:38.141Z,3.40
2019-04-11T23:12:07.767Z,3.40
2019-04-11T23:14:37.439Z,3.40
2019-04-11T23:17:07.095Z,3.40
2019-04-11T23:19:37.058Z,3.50
2019-04-11T23:22:06.691Z,3.50
2019-04-11T23:24:36.562Z,3.50
2019-04-11T23:27:06.208Z,3.60
2019-04-11T23:29:35.844Z,3.60
2019-04-11T23:32:05.475Z,3.60
2019-04-11T23:34:35.202Z,3.70
2019-04-11T23:37:04.958Z,3.80
2019-04-11T23:39:35.624Z,3.80
2019-04-11T23:42:05.723Z,3.80
2019-04-11T23:44:35.499Z,3.80
2019-04-11T23:47:05.227Z,3.80
2019-04-11T23:49:35.198Z,3.80
2019-04-11T23:52:05.107Z,3.80
2019-04-11T23:54:35.016Z,3.80
2019-04-11T23:57:04.645Z,3.90
2019-04-11T23:59:34.289Z,3.90
